HALF-HOURLY OBSERVATIONS INDEX

013

Northeast interior

BALGO HILLS ASA

Site: 013045
Alt: 421.1m
215km S of HALLS CREEK


  Time     Wind        Temp  DP   Baro     Rain since   Rain past  Vis(m), Cloud(base in m), Weather
  local        km/h                         9am  last   hr   10m    
Mon 08:00  ------/--- --------  1013.9   ----  ----  ----  ----   ----- 
Mon 08:30  ------/--- --------  1014.1   ----  ----  ----  ----   ----- 
Mon 09:00  ------/--- --------  1013.9   ----  ----  ----  ----   ----- 
Mon 09:30  ------/--- --------  1013.9   ----  ----  ----  ----   ----- 
Mon 10:00  ------/--- --------  1013.8   ----  ----  ----  ----   ----- 
Mon 10:30  ------/--- --------  1013.4   ----  ----  ----  ----   ----- 
Mon 11:00  ------/--- --------  1012.8   ----  ----  ----  ----   ----- 
Mon 11:30  ------/--- --------  1012.3   ----  ----  ----  ----   ----- 
Mon 12:00  ------/--- --------  1011.6   ----  ----  ----  ----   ----- 
Mon 12:30  ------/--- --------  1011.1   ----  ----  ----  ----   ----- 
Mon 13:00  ------/--- --------  1010.5   ----  ----  ----  ----   ----- 
Mon 13:30  ------/--- --------  1010.4   ----   0.0   0.0  ----   ----- 

GILES METEOROLOGICAL OFFICE

Site: 013017
Alt: 598.0m
709km NE of LAVERTON


  Time     Wind        Temp  DP   Baro     Rain since   Rain past  Vis(m), Cloud(base in m), Weather
  local        km/h                         9am  last   hr   10m    
Mon 08:00  NNE 32/ 46  34.8  7.0  1014.0    0.0   0.0   0.0   0.0   10000 
Mon 08:17  NNE 28/ 46  35.5  7.6  1014.1    0.0   0.0  ----   0.0   10000 
Mon 08:30  NNE 26/ 39  36.1  8.0  1014.0    0.0   0.0   0.0   0.0   10000 
Mon 09:00  NNE 24/ 35  36.7  8.5  1014.0    0.0   0.0   0.0   0.0   10000 
Mon 09:30  NNE 28/ 45  37.5  9.2  1013.5    0.0   0.0   0.0   0.0   10000 
Mon 09:57  NNE 28/ 48  38.1  8.8  1013.3    0.0   0.0  ----   0.0   10000 
Mon 10:00  NNE 28/ 48  38.2  8.9  1013.3    0.0   0.0   0.0   0.0   10000 
Mon 10:30  NNE 26/ 37  38.7  7.4  1013.1    0.0   0.0   0.0   0.0   10000 
Mon 11:00  NNE 22/ 33  39.5  7.1  1012.9    0.0   0.0   0.0   0.0   10000 
Mon 11:30   NE 19/ 30  40.1  6.4  1012.4    0.0   0.0   0.0   0.0   10000 
Mon 12:00    N 15/ 28  40.4  7.8  1012.1    0.0   0.0   0.0   0.0   10000 
Mon 12:30   NE 15/ 24  40.3  7.7  1011.5    0.0   0.0   0.0   0.0   10000 
Mon 13:00    N 19/ 28  41.1  8.3  1011.0    0.0   0.0   0.0   0.0   10000 
Mon 13:30  ENE 19/ 30  41.5  7.5  1010.8    0.0   0.0   0.0   0.0   10000 

TELFER AERO

Site: 013030
Alt: 291.9m
315km NE of NEWMAN


  Time     Wind        Temp  DP   Baro     Rain since   Rain past  Vis(m), Cloud(base in m), Weather
  local        km/h                         9am  last   hr   10m    
Mon 08:00  NNW 22/ 30  32.0 19.9  1009.2    0.0   0.0   0.0   0.0   ----- 
Mon 08:30  NNW 24/ 32  32.9 20.1  1009.4    0.0   0.0   0.0   0.0   ----- 
Mon 09:00   NW 24/ 33  34.6 20.2  1009.3    0.0   0.0   0.0   0.0   ----- 
Mon 09:30   NW 24/ 33  36.7 20.1  1009.1    0.0   0.0   0.0   0.0   ----- 
Mon 10:00  WNW 20/ 30  38.0 19.9  1008.9    0.0   0.0   0.0   0.0   ----- 
Mon 10:30    W 22/ 30  38.8 18.6  1008.4    0.0   0.0   0.0   0.0   ----- 
Mon 11:00    W 17/ 24  39.9 18.5  1008.1    0.0   0.0   0.0   0.0   ----- 
Mon 11:30    W 15/ 24  41.3 16.7  1007.6    0.0   0.0   0.0   0.0   ----- 
Mon 12:00  WSW 15/ 20  42.4 16.2  1007.1    0.0   0.0   0.0   0.0   ----- 
Mon 12:30  SSE  9/ 20  43.7 15.8  1006.6    0.0   0.0   0.0   0.0   ----- 
Mon 13:00  SSE 13/ 20  44.1 15.3  1006.2    0.0   0.0   0.0   0.0   ----- 
Mon 13:30  ESE  9/ 17  43.6 14.9  1005.6    0.0   0.0   0.0   0.0   ----- 

WARBURTON AIRFIELD

Site: 013011
Alt: 459.0m
497km NE of LAVERTON


  Time     Wind        Temp  DP   Baro     Rain since   Rain past  Vis(m), Cloud(base in m), Weather
  local        km/h                         9am  last   hr   10m    
Mon 08:00  ENE 24/ 35  35.6  4.0  1011.6    0.0   0.0   0.0   0.0   ----- 
Mon 08:30   NE 26/ 37  37.4  4.4  1011.7    0.0   0.0   0.0   0.0   ----- 
Mon 09:00  NNE 28/ 39  39.7  5.0  1011.4    0.0   0.0   0.0   0.0   ----- 
Mon 09:30  NNE 32/ 43  40.5  5.6  1011.4    0.0   0.0   0.0   0.0   ----- 
Mon 10:00  NNE 32/ 43  41.0  6.0  1011.2    0.0   0.0   0.0   0.0   ----- 
Mon 10:30    N 28/ 39  42.2  6.9  1011.0    0.0   0.0   0.0   0.0   ----- 
Mon 11:00    N 24/ 37  42.3  7.0  1010.7    0.0   0.0   0.0   0.0   ----- 
Mon 11:30    N 22/ 35  41.6  6.4  1010.3    0.0   0.0   0.0   0.0   ----- 
Mon 12:00    N 24/ 39  42.9  7.4  1009.7    0.0   0.0   0.0   0.0   ----- 
Mon 12:30  NNE 17/ 28  43.8  8.1  1009.3    0.0   0.0   0.0   0.0   ----- 
Mon 13:00   NW 11/ 20  43.5  7.9  1009.0    0.0   0.0   0.0   0.0   ----- 
Mon 13:16  NNE 28/ 39  44.4  8.6  1008.7    0.0   0.0   0.0   0.0   ----- 
Mon 13:30    N 20/ 35  43.4  6.5  1008.7    0.0   0.0   0.0   0.0   ----- 

WILUNA AERO

Site: 013044
Alt: 502.4m
km of


  Time     Wind        Temp  DP   Baro     Rain since   Rain past  Vis(m), Cloud(base in m), Weather
  local        km/h                         9am  last   hr   10m    
Mon 08:00  ESE 15/ 20  28.8 13.1  1012.0    0.0   0.0   0.0   0.0   10000 
Mon 08:30   SE 13/ 19  30.0 13.7  1012.1    0.0   0.0   0.0   0.0   10000 
Mon 09:00   SE 15/ 19  31.2 13.9  1012.3    0.0   0.0   0.0   0.0   10000 
Mon 09:30  SSE 11/ 15  31.7 13.0  1012.1    0.0   0.0   0.0   0.0   10000 
Mon 10:00  SSE  9/ 15  32.9 12.0  1011.9    0.0   0.0   0.0   0.0   10000 
Mon 10:30  SSE  7/ 17  34.7 11.8  1011.6    0.0   0.0   0.0   0.0   10000 
Mon 11:00  SSE  6/  7  35.9 11.5  1011.2    0.0   0.0   0.0   0.0   10000 
Mon 11:30    W  7/ 13  36.7 12.2  1010.8    0.0   0.0   0.0   0.0   10000 
Mon 12:00  WNW 17/ 20  38.4 12.2  1010.3    0.0   0.0   0.0   0.0   10000 
Mon 12:30  WNW 19/ 26  38.9 12.6  1009.8    0.0   0.0   0.0   0.0   10000 
Mon 13:00    W 20/ 30  39.1 12.0  1009.5    0.0   0.0   0.0   0.0   10000 
Mon 13:30  WSW 13/ 24  39.5 12.4  1009.2    0.0   0.0   0.0   0.0   10000